Time;durP1;ratioP1;P1;durP2;ratioP2;P2;SDS_P1;SDS_P2;PMS_P1;PMS_P2;Temp;Humidity;BMP_temperature;BMP_pressure;BME280_temperature;BME280_humidity;BME280_pressure;Samples;Min_cycle;Max_cycle;Signal;HPM_P1;HPM_P2
2020/12/09 00:02:06;;;;;;;;;;;1.50;99.90;;;;;;5094044;28;19955;-81
2020/12/09 00:04:35;;;;;;;;;;;1.40;99.90;;;;;;5092555;28;19908;-81
2020/12/09 00:07:03;;;;;;;;;;;1.30;99.90;;;;;;5089927;28;19912;-82
2020/12/09 00:09:29;;;;;;;;;;;1.30;99.90;;;;;;5093522;28;19912;-82
2020/12/09 00:11:55;;;;;;;;;;;1.20;99.90;;;;;;5093542;28;19917;-81
2020/12/09 00:14:21;;;;;;;;;;;1.20;99.90;;;;;;5092663;28;20018;-81
2020/12/09 00:17:07;;;;;;;;;;;1.20;99.90;;;;;;5094534;28;19908;-81
2020/12/09 00:19:35;;;;;;;;;;;1.20;99.90;;;;;;5094935;28;19920;-82
2020/12/09 00:22:01;;;;;;;;;;;1.20;99.90;;;;;;5094998;28;19908;-81
2020/12/09 00:24:28;;;;;;;;;;;1.30;99.90;;;;;;5092978;28;20403;-81
2020/12/09 00:26:54;;;;;;;;;;;1.30;99.90;;;;;;5095996;28;19908;-81
2020/12/09 00:29:30;;;;;;;;;;;1.30;99.90;;;;;;5097993;28;19912;-81
2020/12/09 00:31:57;;;;;;;;;;;1.20;99.90;;;;;;5097507;28;19920;-81
2020/12/09 00:34:22;;;;;;;;;;;1.20;99.90;;;;;;5096232;28;19914;-81
2020/12/09 00:36:54;;;;;;;;;;;1.20;99.90;;;;;;5097004;28;19915;-81
2020/12/09 00:39:20;;;;;;;;;;;1.10;99.90;;;;;;5097482;28;19912;-82
2020/12/09 00:41:46;;;;;;;;;;;1.00;99.90;;;;;;5096252;28;20291;-81
2020/12/09 00:44:16;;;;;;;;;;;1.00;99.90;;;;;;5096093;28;19951;-81
2020/12/09 00:46:44;;;;;;;;;;;0.90;99.90;;;;;;5096976;28;19982;-81
2020/12/09 00:49:09;;;;;;;;;;;0.90;99.90;;;;;;5095792;28;19985;-81
2020/12/09 00:51:37;;;;;;;;;;;0.80;99.90;;;;;;5097170;28;19916;-81
2020/12/09 00:54:03;;;;;;;;;;;0.80;99.90;;;;;;5096024;28;20315;-81
2020/12/09 00:56:31;;;;;;;;;;;0.70;99.90;;;;;;5097192;28;19908;-81
2020/12/09 00:59:06;;;;;;;;;;;0.70;99.90;;;;;;5095750;28;19909;-81
2020/12/09 01:01:40;;;;;;;;;;;0.60;99.90;;;;;;5095733;28;19915;-82
2020/12/09 01:04:26;;;;;;;;;;;0.60;99.90;;;;;;5096832;28;19908;-81
2020/12/09 01:06:51;;;;;;;;;;;0.50;99.90;;;;;;5095525;28;19961;-81
2020/12/09 01:09:17;;;;;;;;;;;0.50;99.90;;;;;;5095786;28;19962;-81
2020/12/09 01:11:44;;;;;;;;;;;0.40;99.90;;;;;;5095417;28;19964;-82
2020/12/09 01:14:30;;;;;;;;;;;0.40;99.90;;;;;;5096662;28;19916;-81
2020/12/09 01:17:15;;;;;;;;;;;0.30;99.90;;;;;;5096303;28;19908;-81
2020/12/09 01:19:40;;;;;;;;;;;0.20;99.90;;;;;;5095251;28;19924;-81
2020/12/09 01:22:06;;;;;;;;;;;0.20;99.90;;;;;;5096282;28;19915;-82
2020/12/09 01:24:39;;;;;;;;;;;0.10;99.90;;;;;;5095339;28;19908;-82
2020/12/09 01:27:04;;;;;;;;;;;0.10;99.90;;;;;;5095844;28;19954;-81
2020/12/09 01:29:40;;;;;;;;;;;0.20;99.90;;;;;;5095944;28;19916;-81
2020/12/09 01:32:05;;;;;;;;;;;0.10;99.90;;;;;;5095304;28;20285;-81
2020/12/09 01:34:36;;;;;;;;;;;0.10;99.90;;;;;;5095201;28;19908;-81
2020/12/09 01:37:12;;;;;;;;;;;0.10;99.90;;;;;;5094881;28;20293;-82
2020/12/09 01:39:45;;;;;;;;;;;0.10;99.90;;;;;;5095391;28;20325;-82
2020/12/09 01:42:11;;;;;;;;;;;0.10;99.90;;;;;;5096359;28;19908;-81
2020/12/09 01:44:37;;;;;;;;;;;0.20;99.90;;;;;;5094677;28;19908;-81
2020/12/09 01:47:06;;;;;;;;;;;0.20;99.90;;;;;;5094765;28;19909;-82
2020/12/09 01:49:35;;;;;;;;;;;0.30;99.90;;;;;;5095844;28;19918;-81
2020/12/09 01:52:03;;;;;;;;;;;0.30;99.90;;;;;;5095374;28;19916;-81
2020/12/09 01:54:33;;;;;;;;;;;0.40;99.90;;;;;;5095154;28;20284;-81
2020/12/09 01:57:27;;;;;;;;;;;0.40;99.90;;;;;;5095864;28;19908;-81
2020/12/09 01:59:55;;;;;;;;;;;0.40;99.90;;;;;;5092927;28;20260;-81
2020/12/09 02:02:23;;;;;;;;;;;0.40;99.90;;;;;;5091842;28;19916;-81
2020/12/09 02:04:48;;;;;;;;;;;0.40;99.90;;;;;;5096061;28;19908;-82
2020/12/09 02:07:14;;;;;;;;;;;0.40;99.90;;;;;;5095877;28;19908;-81
2020/12/09 02:09:40;;;;;;;;;;;0.40;99.90;;;;;;5094394;28;19912;-81
2020/12/09 02:12:16;;;;;;;;;;;0.30;99.90;;;;;;5095699;28;19912;-81
2020/12/09 02:14:44;;;;;;;;;;;0.30;99.90;;;;;;5091886;28;19959;-81
2020/12/09 02:17:10;;;;;;;;;;;0.20;99.90;;;;;;5091357;28;19917;-81
2020/12/09 02:19:35;;;;;;;;;;;0.20;99.90;;;;;;5094254;28;19924;-81
2020/12/09 02:22:12;;;;;;;;;;;0.10;99.90;;;;;;5094805;28;19912;-81
2020/12/09 02:24:40;;;;;;;;;;;0.00;99.90;;;;;;5095652;28;19908;-80
2020/12/09 02:27:13;;;;;;;;;;;0.00;99.90;;;;;;5091529;28;20029;-81
2020/12/09 02:29:46;;;;;;;;;;;-0.10;99.90;;;;;;5095256;28;19915;-81
2020/12/09 02:32:11;;;;;;;;;;;-0.20;99.90;;;;;;5094511;28;20285;-81
2020/12/09 02:34:40;;;;;;;;;;;-0.20;99.90;;;;;;5094374;28;19908;-81
2020/12/09 02:37:05;;;;;;;;;;;-0.30;99.90;;;;;;5095433;28;19994;-81
2020/12/09 02:39:32;;;;;;;;;;;-0.30;99.90;;;;;;5093513;28;19943;-81
2020/12/09 02:41:58;;;;;;;;;;;-0.40;99.90;;;;;;5087630;28;19915;-81
2020/12/09 02:44:26;;;;;;;;;;;-0.40;99.90;;;;;;5095314;28;19908;-81
2020/12/09 02:46:52;;;;;;;;;;;-0.40;99.90;;;;;;5093710;28;19915;-81
2020/12/09 02:49:19;;;;;;;;;;;-0.30;99.90;;;;;;5094696;28;19941;-81
2020/12/09 02:51:45;;;;;;;;;;;-0.30;99.90;;;;;;5094783;28;20025;-81
2020/12/09 02:54:11;;;;;;;;;;;-0.20;99.90;;;;;;5095017;28;20361;-81
2020/12/09 02:56:36;;;;;;;;;;;-0.20;99.90;;;;;;5094843;28;19912;-81
2020/12/09 02:59:02;;;;;;;;;;;-0.20;99.90;;;;;;5095244;28;19930;-81
2020/12/09 03:01:31;;;;;;;;;;;-0.20;99.90;;;;;;5094924;28;20062;-81
2020/12/09 03:03:59;;;;;;;;;;;-0.20;99.90;;;;;;5093578;28;20022;-81
2020/12/09 03:06:25;;;;;;;;;;;-0.10;99.90;;;;;;5090775;28;19912;-81
2020/12/09 03:08:50;;;;;;;;;;;-0.10;99.90;;;;;;5094356;28;20442;-81
2020/12/09 03:11:16;;;;;;;;;;;0.00;99.90;;;;;;5094061;28;19920;-81
2020/12/09 03:13:44;;;;;;;;;;;0.10;99.90;;;;;;5094674;28;19951;-80
2020/12/09 03:16:10;;;;;;;;;;;0.20;99.90;;;;;;5090401;28;19973;-80
2020/12/09 03:18:35;;;;;;;;;;;0.30;99.90;;;;;;5096043;28;19943;-80
2020/12/09 03:21:06;;;;;;;;;;;0.40;99.90;;;;;;5115207;28;19933;-81
2020/12/09 03:23:34;;;;;;;;;;;0.50;99.90;;;;;;5114603;28;19907;-81
2020/12/09 03:25:59;;;;;;;;;;;0.50;99.90;;;;;;5114853;28;19969;-81
2020/12/09 03:28:25;;;;;;;;;;;0.60;99.90;;;;;;5114935;28;19915;-80
2020/12/09 03:30:54;;;;;;;;;;;0.70;99.90;;;;;;5114806;28;20006;-80
2020/12/09 03:33:20;;;;;;;;;;;0.80;99.90;;;;;;5114475;28;19916;-80
2020/12/09 03:35:48;;;;;;;;;;;0.80;99.90;;;;;;5095800;28;19908;-80
2020/12/09 03:38:16;;;;;;;;;;;0.90;99.90;;;;;;5096606;28;20352;-80
2020/12/09 03:40:41;;;;;;;;;;;1.00;99.90;;;;;;5114761;28;20358;-80
2020/12/09 03:43:07;;;;;;;;;;;1.00;99.90;;;;;;5097143;28;19908;-81
2020/12/09 03:45:35;;;;;;;;;;;1.10;99.90;;;;;;5093278;28;19912;-81
2020/12/09 03:48:01;;;;;;;;;;;1.10;99.90;;;;;;5096470;28;19949;-80
2020/12/09 03:50:26;;;;;;;;;;;1.10;99.90;;;;;;5114226;28;19912;-80
2020/12/09 03:52:52;;;;;;;;;;;1.20;99.90;;;;;;5096610;28;19914;-80
2020/12/09 03:55:17;;;;;;;;;;;1.20;99.90;;;;;;5096673;28;20388;-80
2020/12/09 03:57:43;;;;;;;;;;;1.30;99.90;;;;;;5096249;28;19915;-80
2020/12/09 04:00:16;;;;;;;;;;;1.30;99.90;;;;;;5096202;28;19952;-80
2020/12/09 04:02:43;;;;;;;;;;;1.40;99.90;;;;;;5119021;28;19908;-80
2020/12/09 04:05:08;;;;;;;;;;;1.40;99.90;;;;;;5100236;28;19957;-81
2020/12/09 04:07:37;;;;;;;;;;;1.40;99.90;;;;;;5100842;28;19916;-80
2020/12/09 04:10:03;;;;;;;;;;;1.50;99.90;;;;;;5100365;28;19918;-81
2020/12/09 04:12:29;;;;;;;;;;;1.50;99.90;;;;;;5100381;28;19974;-81
2020/12/09 04:15:02;;;;;;;;;;;1.60;99.90;;;;;;5093893;28;20360;-81
2020/12/09 04:17:36;;;;;;;;;;;1.60;99.90;;;;;;5099963;28;19907;-81
2020/12/09 04:20:02;;;;;;;;;;;1.70;99.90;;;;;;5100130;28;20353;-80
2020/12/09 04:22:35;;;;;;;;;;;1.70;99.90;;;;;;5100351;28;19908;-81
2020/12/09 04:25:01;;;;;;;;;;;1.70;99.90;;;;;;5100147;28;19914;-82
2020/12/09 04:27:29;;;;;;;;;;;1.80;99.90;;;;;;5118262;28;19908;-81
2020/12/09 04:29:55;;;;;;;;;;;1.90;99.90;;;;;;5118086;28;19962;-82
2020/12/09 04:32:23;;;;;;;;;;;2.00;99.90;;;;;;5096877;28;19916;-82
2020/12/09 04:34:57;;;;;;;;;;;2.10;99.90;;;;;;5100205;28;19953;-80
2020/12/09 04:37:25;;;;;;;;;;;2.20;99.90;;;;;;5095511;28;19907;-81
2020/12/09 04:39:52;;;;;;;;;;;2.20;99.90;;;;;;5118175;28;19911;-80
2020/12/09 04:42:18;;;;;;;;;;;2.30;99.90;;;;;;5055164;28;19924;-81
2020/12/09 04:44:45;;;;;;;;;;;2.40;99.90;;;;;;5038148;28;19909;-81
2020/12/09 04:47:24;;;;;;;;;;;2.40;99.90;;;;;;5055235;28;19913;-81
2020/12/09 04:49:55;;;;;;;;;;;2.50;99.90;;;;;;5054760;28;19913;-81
2020/12/09 04:52:42;;;;;;;;;;;2.50;99.90;;;;;;5038481;28;19921;-81
2020/12/09 04:55:09;;;;;;;;;;;2.50;99.90;;;;;;5054657;28;19908;-81
2020/12/09 04:57:42;;;;;;;;;;;2.50;99.90;;;;;;5054714;28;19909;-81
2020/12/09 05:00:09;;;;;;;;;;;2.50;99.90;;;;;;5054631;28;19909;-81
2020/12/09 05:02:42;;;;;;;;;;;2.60;99.90;;;;;;5054705;28;19913;-80
2020/12/09 05:05:10;;;;;;;;;;;2.60;99.90;;;;;;5054389;28;20023;-81
2020/12/09 05:07:36;;;;;;;;;;;2.60;99.90;;;;;;5054191;28;19913;-81
2020/12/09 05:10:14;;;;;;;;;;;2.60;99.90;;;;;;5054451;28;20259;-81
2020/12/09 05:12:42;;;;;;;;;;;2.60;99.90;;;;;;5069732;28;19911;-81
2020/12/09 05:15:17;;;;;;;;;;;2.60;99.90;;;;;;5099101;28;19908;-81
2020/12/09 05:17:55;;;;;;;;;;;2.60;99.90;;;;;;5117541;28;19930;-81
2020/12/09 05:20:35;;;;;;;;;;;2.60;99.90;;;;;;5116913;28;19930;-81
2020/12/09 05:23:01;;;;;;;;;;;2.60;99.90;;;;;;5099193;28;19912;-81
2020/12/09 05:25:30;;;;;;;;;;;2.60;99.90;;;;;;5113741;28;19912;-81
2020/12/09 05:27:59;;;;;;;;;;;2.60;99.90;;;;;;5117023;28;19977;-82
2020/12/09 05:30:43;;;;;;;;;;;2.50;99.90;;;;;;5098399;28;20007;-82
2020/12/09 05:33:10;;;;;;;;;;;2.50;99.90;;;;;;5099870;28;20353;-80
2020/12/09 05:35:35;;;;;;;;;;;2.50;99.90;;;;;;5113253;28;19908;-81
2020/12/09 05:38:10;;;;;;;;;;;2.50;99.90;;;;;;5117416;28;20314;-81
2020/12/09 05:40:37;;;;;;;;;;;2.50;99.90;;;;;;5098678;28;19950;-81
2020/12/09 05:43:02;;;;;;;;;;;2.50;99.90;;;;;;5098470;28;19914;-81
2020/12/09 05:45:31;;;;;;;;;;;2.50;99.90;;;;;;5098773;28;19908;-81
2020/12/09 05:48:18;;;;;;;;;;;2.50;99.90;;;;;;5099214;28;19907;-81
2020/12/09 05:50:48;;;;;;;;;;;2.50;99.90;;;;;;5098376;28;19999;-81
2020/12/09 05:53:22;;;;;;;;;;;2.50;99.90;;;;;;5098348;28;19912;-81
2020/12/09 05:55:49;;;;;;;;;;;2.60;99.90;;;;;;5098187;28;20360;-81
2020/12/09 05:58:24;;;;;;;;;;;2.50;99.90;;;;;;5098269;28;20308;-81
2020/12/09 06:01:30;;;;;;;;;;;2.50;99.90;;;;;;5116556;28;19914;-81
2020/12/09 06:04:06;;;;;;;;;;;2.50;99.90;;;;;;5097884;28;19943;-81
2020/12/09 06:06:32;;;;;;;;;;;2.50;99.90;;;;;;5095823;28;19912;-80
2020/12/09 06:09:09;;;;;;;;;;;2.60;99.90;;;;;;5098394;28;19930;-81
2020/12/09 06:11:39;;;;;;;;;;;2.60;99.90;;;;;;5116247;28;19920;-81
2020/12/09 06:14:15;;;;;;;;;;;2.60;99.90;;;;;;5106743;28;20327;-81
2020/12/09 06:16:46;;;;;;;;;;;2.60;99.90;;;;;;5116164;28;20379;-80
2020/12/09 06:19:14;;;;;;;;;;;2.60;99.90;;;;;;5115930;28;19920;-83
2020/12/09 06:21:39;;;;;;;;;;;2.60;99.90;;;;;;5097470;28;20264;-81
2020/12/09 06:24:11;;;;;;;;;;;2.60;99.90;;;;;;5095774;28;19908;-81
2020/12/09 06:26:39;;;;;;;;;;;2.60;99.90;;;;;;5097878;28;19915;-80
2020/12/09 06:29:12;;;;;;;;;;;2.70;99.90;;;;;;5115113;28;19908;-80
2020/12/09 06:31:41;;;;;;;;;;;2.60;99.90;;;;;;5096436;28;19916;-80
2020/12/09 06:34:13;;;;;;;;;;;2.70;99.90;;;;;;5096791;28;19919;-80
2020/12/09 06:36:41;;;;;;;;;;;2.70;99.90;;;;;;5115735;28;19930;-80
2020/12/09 06:39:15;;;;;;;;;;;2.70;99.90;;;;;;5115406;28;20415;-80
2020/12/09 06:42:01;;;;;;;;;;;2.70;99.90;;;;;;5086580;28;19919;-80
2020/12/09 06:47:18;;;;;;;;;;;2.70;99.90;;;;;;5095262;28;20003;-80
2020/12/09 06:49:44;;;;;;;;;;;2.70;99.90;;;;;;5076623;28;20432;-81
2020/12/09 06:52:10;;;;;;;;;;;2.80;99.90;;;;;;5095390;28;19915;-80
2020/12/09 06:54:45;;;;;;;;;;;2.80;99.90;;;;;;5077395;28;19908;-81
2020/12/09 06:57:24;;;;;;;;;;;2.70;99.90;;;;;;5076942;28;20272;-80
2020/12/09 07:00:00;;;;;;;;;;;2.70;99.90;;;;;;5076613;28;20372;-80
2020/12/09 07:02:27;;;;;;;;;;;2.70;99.90;;;;;;5095327;28;19912;-81
2020/12/09 07:04:52;;;;;;;;;;;2.70;99.90;;;;;;5073374;28;19916;-80
2020/12/09 07:07:28;;;;;;;;;;;2.70;99.90;;;;;;5076594;28;19908;-81
2020/12/09 07:09:53;;;;;;;;;;;2.70;99.90;;;;;;5094946;28;20006;-80
2020/12/09 07:12:19;;;;;;;;;;;2.70;99.90;;;;;;5076084;28;20409;-80
2020/12/09 07:14:47;;;;;;;;;;;2.70;99.90;;;;;;5075795;28;20358;-80
2020/12/09 07:17:14;;;;;;;;;;;2.70;99.90;;;;;;5076911;28;20002;-81
2020/12/09 07:19:40;;;;;;;;;;;2.70;99.90;;;;;;5076936;28;20023;-81
2020/12/09 07:22:05;;;;;;;;;;;2.70;99.90;;;;;;5094775;28;19950;-81
2020/12/09 07:24:31;;;;;;;;;;;2.70;99.90;;;;;;5076620;28;19919;-81
2020/12/09 07:26:56;;;;;;;;;;;2.70;99.90;;;;;;5076728;28;19908;-81
2020/12/09 07:29:22;;;;;;;;;;;2.70;99.90;;;;;;5076076;28;19908;-82
2020/12/09 07:31:48;;;;;;;;;;;2.70;99.90;;;;;;5076390;28;19934;-81
2020/12/09 07:34:13;;;;;;;;;;;2.60;99.90;;;;;;5094522;28;19991;-82
2020/12/09 07:36:50;;;;;;;;;;;2.60;99.90;;;;;;5075614;28;19915;-81
2020/12/09 07:39:33;;;;;;;;;;;2.70;99.90;;;;;;5093955;28;19915;-82
2020/12/09 07:42:00;;;;;;;;;;;2.70;99.90;;;;;;5075679;28;20429;-82
2020/12/09 07:44:26;;;;;;;;;;;2.60;99.90;;;;;;5076287;28;19983;-82
2020/12/09 07:46:53;;;;;;;;;;;2.70;99.90;;;;;;5091103;28;19919;-82
2020/12/09 07:49:19;;;;;;;;;;;2.60;99.90;;;;;;5075795;28;20053;-81
2020/12/09 07:51:45;;;;;;;;;;;2.60;99.90;;;;;;5091004;28;20019;-82
2020/12/09 07:54:11;;;;;;;;;;;2.50;99.90;;;;;;5089187;28;19993;-81
2020/12/09 07:56:36;;;;;;;;;;;2.40;99.90;;;;;;5094222;28;19912;-82
2020/12/09 07:59:02;;;;;;;;;;;2.30;99.90;;;;;;5076309;28;19915;-82
2020/12/09 08:01:28;;;;;;;;;;;2.20;99.90;;;;;;5075924;28;19908;-82
2020/12/09 08:03:53;;;;;;;;;;;2.10;99.90;;;;;;5093615;28;19908;-82
2020/12/09 08:06:25;;;;;;;;;;;2.00;99.90;;;;;;5094119;28;19908;-82
2020/12/09 08:08:58;;;;;;;;;;;2.00;99.90;;;;;;5075802;28;20004;-82
2020/12/09 08:11:31;;;;;;;;;;;1.90;99.90;;;;;;5075890;28;19916;-82
2020/12/09 08:14:00;;;;;;;;;;;1.90;99.90;;;;;;5093926;28;19915;-82
2020/12/09 08:16:28;;;;;;;;;;;1.80;99.90;;;;;;5093525;28;19994;-80
2020/12/09 08:19:03;;;;;;;;;;;1.70;99.90;;;;;;5072320;28;19927;-80
2020/12/09 08:21:31;;;;;;;;;;;1.70;99.90;;;;;;5070978;28;20341;-81
2020/12/09 08:23:58;;;;;;;;;;;1.60;99.90;;;;;;5069395;28;19917;-82
2020/12/09 08:26:30;;;;;;;;;;;1.50;99.90;;;;;;5072007;28;20357;-82
2020/12/09 08:28:56;;;;;;;;;;;1.60;99.90;;;;;;5072380;28;20006;-81
2020/12/09 08:31:22;;;;;;;;;;;1.50;99.90;;;;;;5072270;28;19917;-81
2020/12/09 08:33:50;;;;;;;;;;;1.50;99.90;;;;;;5073455;28;20475;-81
2020/12/09 08:36:16;;;;;;;;;;;1.40;99.90;;;;;;5073556;28;20277;-82
2020/12/09 08:38:56;;;;;;;;;;;1.40;99.90;;;;;;5070219;28;19917;-82
2020/12/09 08:41:34;;;;;;;;;;;1.40;99.90;;;;;;5070726;28;19909;-81
2020/12/09 08:44:03;;;;;;;;;;;1.30;99.90;;;;;;5072663;28;19923;-81
2020/12/09 08:46:35;;;;;;;;;;;1.30;99.90;;;;;;5074165;28;20404;-81
2020/12/09 08:49:04;;;;;;;;;;;1.30;99.90;;;;;;5075890;28;19955;-81
2020/12/09 08:51:30;;;;;;;;;;;1.30;99.90;;;;;;5077738;28;20007;-81
2020/12/09 08:53:56;;;;;;;;;;;1.30;99.90;;;;;;5076674;28;19932;-81
2020/12/09 08:56:26;;;;;;;;;;;1.30;99.90;;;;;;5076866;28;19908;-81
2020/12/09 08:58:51;;;;;;;;;;;1.40;99.90;;;;;;5076481;28;20002;-82
2020/12/09 09:01:17;;;;;;;;;;;1.40;99.90;;;;;;5078113;28;20384;-82
2020/12/09 09:03:44;;;;;;;;;;;1.40;99.90;;;;;;5079885;28;20392;-82
2020/12/09 09:06:12;;;;;;;;;;;1.40;99.90;;;;;;5074658;28;19924;-81
2020/12/09 09:08:41;;;;;;;;;;;1.40;99.90;;;;;;5077900;28;19908;-81
2020/12/09 09:11:06;;;;;;;;;;;1.50;99.90;;;;;;5076028;28;19934;-82
2020/12/09 09:13:32;;;;;;;;;;;1.50;99.90;;;;;;5076850;28;19924;-83
2020/12/09 09:16:04;;;;;;;;;;;1.50;99.90;;;;;;5076577;28;19927;-82
2020/12/09 09:18:29;;;;;;;;;;;1.50;99.90;;;;;;5078733;28;20049;-81
2020/12/09 09:21:01;;;;;;;;;;;1.50;99.90;;;;;;5095078;28;19965;-82
2020/12/09 09:23:27;;;;;;;;;;;1.50;99.90;;;;;;5078792;28;19908;-82
2020/12/09 09:25:55;;;;;;;;;;;1.50;99.90;;;;;;5078590;28;19915;-82
2020/12/09 09:28:21;;;;;;;;;;;1.60;99.90;;;;;;5078124;28;20399;-82
2020/12/09 09:30:46;;;;;;;;;;;1.50;99.90;;;;;;5078606;28;19916;-82
2020/12/09 09:33:12;;;;;;;;;;;1.60;99.90;;;;;;5096910;28;19961;-82
2020/12/09 09:35:38;;;;;;;;;;;1.50;99.90;;;;;;5078420;28;19914;-82
2020/12/09 09:38:03;;;;;;;;;;;1.50;99.90;;;;;;5078177;28;19909;-82
2020/12/09 09:40:28;;;;;;;;;;;1.50;99.90;;;;;;5096123;28;19908;-82
2020/12/09 09:42:54;;;;;;;;;;;1.60;99.90;;;;;;5096217;28;19908;-83
2020/12/09 09:45:21;;;;;;;;;;;1.60;99.90;;;;;;5078244;28;19944;-82
2020/12/09 09:47:46;;;;;;;;;;;1.60;99.90;;;;;;5096238;28;20384;-82
2020/12/09 09:50:12;;;;;;;;;;;1.50;99.90;;;;;;5077739;28;19912;-81
2020/12/09 09:52:38;;;;;;;;;;;1.60;99.90;;;;;;5096221;28;19919;-82
2020/12/09 09:55:04;;;;;;;;;;;1.60;99.90;;;;;;5075518;28;19961;-81
2020/12/09 09:57:30;;;;;;;;;;;1.60;99.90;;;;;;5095807;28;19908;-82
2020/12/09 09:59:55;;;;;;;;;;;1.60;99.90;;;;;;5078392;28;20372;-81
2020/12/09 10:02:29;;;;;;;;;;;1.70;99.90;;;;;;5078526;28;20010;-81
2020/12/09 10:04:54;;;;;;;;;;;1.70;99.90;;;;;;5077908;28;19911;-80
2020/12/09 10:07:20;;;;;;;;;;;1.60;99.90;;;;;;5077913;28;19969;-81
2020/12/09 10:09:45;;;;;;;;;;;1.60;99.90;;;;;;5077837;28;19969;-81
2020/12/09 10:12:11;;;;;;;;;;;1.50;99.90;;;;;;5077458;28;19916;-82
2020/12/09 10:14:36;;;;;;;;;;;1.50;99.90;;;;;;5078217;28;19908;-81
2020/12/09 10:17:02;;;;;;;;;;;1.50;99.90;;;;;;5077945;28;19908;-81
2020/12/09 10:19:30;;;;;;;;;;;1.50;99.90;;;;;;5077777;28;20015;-81
2020/12/09 10:22:02;;;;;;;;;;;1.50;99.90;;;;;;5096034;28;19915;-81
2020/12/09 10:24:28;;;;;;;;;;;1.50;99.90;;;;;;5096520;28;19915;-82
2020/12/09 10:26:54;;;;;;;;;;;1.60;99.90;;;;;;5095713;28;19912;-82
2020/12/09 10:29:19;;;;;;;;;;;1.60;99.90;;;;;;5077802;28;19951;-82
2020/12/09 10:31:48;;;;;;;;;;;1.70;99.90;;;;;;5077124;28;20007;-82
2020/12/09 10:34:18;;;;;;;;;;;1.60;99.90;;;;;;5095069;28;20003;-82
2020/12/09 10:36:48;;;;;;;;;;;1.60;99.90;;;;;;5095556;28;19942;-82
2020/12/09 10:39:15;;;;;;;;;;;1.60;99.90;;;;;;5074762;28;19912;-82
2020/12/09 10:41:42;;;;;;;;;;;1.60;99.90;;;;;;5077666;28;19973;-82
2020/12/09 10:44:08;;;;;;;;;;;1.60;99.90;;;;;;5077623;28;20280;-82
2020/12/09 10:46:36;;;;;;;;;;;1.50;99.90;;;;;;5077800;28;20003;-81
2020/12/09 10:49:04;;;;;;;;;;;1.60;99.90;;;;;;5098285;28;19908;-82
2020/12/09 10:51:30;;;;;;;;;;;1.60;99.90;;;;;;5095953;28;19920;-82
2020/12/09 10:53:59;;;;;;;;;;;1.50;99.90;;;;;;5094817;28;19916;-82
2020/12/09 10:56:25;;;;;;;;;;;1.50;99.90;;;;;;5094837;28;19915;-82
2020/12/09 10:58:53;;;;;;;;;;;1.50;99.90;;;;;;5095269;28;20289;-82
2020/12/09 11:01:19;;;;;;;;;;;1.60;99.90;;;;;;5076985;28;19908;-80
2020/12/09 11:03:46;;;;;;;;;;;1.50;99.90;;;;;;5076640;28;19915;-81
2020/12/09 11:06:12;;;;;;;;;;;1.50;99.90;;;;;;5094989;28;19915;-81
2020/12/09 11:08:38;;;;;;;;;;;1.50;99.90;;;;;;5076435;28;19908;-81
2020/12/09 11:11:03;;;;;;;;;;;1.50;99.90;;;;;;5075896;28;20029;-80
2020/12/09 11:13:31;;;;;;;;;;;1.50;99.90;;;;;;5076978;28;19914;-81
2020/12/09 11:15:57;;;;;;;;;;;1.50;99.90;;;;;;5076491;28;20262;-81
2020/12/09 11:18:24;;;;;;;;;;;1.50;99.90;;;;;;5076625;28;19931;-80
2020/12/09 11:20:52;;;;;;;;;;;1.50;99.90;;;;;;5094759;28;20275;-81
2020/12/09 11:23:18;;;;;;;;;;;1.50;99.90;;;;;;5076243;28;20424;-81
2020/12/09 11:25:43;;;;;;;;;;;1.50;99.90;;;;;;5094966;28;19962;-82
2020/12/09 11:28:09;;;;;;;;;;;1.50;99.90;;;;;;5076584;28;20272;-82
2020/12/09 11:30:34;;;;;;;;;;;1.50;99.90;;;;;;5076478;28;19912;-82
2020/12/09 11:33:00;;;;;;;;;;;1.50;99.90;;;;;;5094552;28;19916;-82
2020/12/09 11:35:26;;;;;;;;;;;1.50;99.90;;;;;;5093951;28;19908;-82
2020/12/09 11:37:54;;;;;;;;;;;1.50;99.90;;;;;;5075732;28;20015;-81
2020/12/09 11:40:25;;;;;;;;;;;1.50;99.90;;;;;;5073254;28;19912;-81
2020/12/09 11:42:58;;;;;;;;;;;1.40;99.90;;;;;;5075830;28;20387;-81
2020/12/09 11:45:23;;;;;;;;;;;1.30;99.90;;;;;;5076157;28;20311;-81
2020/12/09 11:47:49;;;;;;;;;;;1.20;99.90;;;;;;5076195;28;19908;-81
2020/12/09 11:50:23;;;;;;;;;;;1.20;99.90;;;;;;5075755;28;20361;-81
2020/12/09 11:52:49;;;;;;;;;;;1.20;99.90;;;;;;5072970;28;20361;-81
2020/12/09 11:55:14;;;;;;;;;;;1.20;99.90;;;;;;5089019;28;19908;-81
2020/12/09 11:57:43;;;;;;;;;;;1.20;99.90;;;;;;5076268;28;19918;-81
2020/12/09 12:00:28;;;;;;;;;;;1.20;99.90;;;;;;5092330;28;19915;-81
2020/12/09 12:02:53;;;;;;;;;;;1.20;99.90;;;;;;5073371;28;19912;-81
2020/12/09 12:05:22;;;;;;;;;;;1.30;99.90;;;;;;5075761;28;19935;-81
2020/12/09 12:07:48;;;;;;;;;;;1.30;99.90;;;;;;5075694;28;19908;-81
2020/12/09 12:10:14;;;;;;;;;;;1.30;99.90;;;;;;5093692;28;20422;-81
2020/12/09 12:12:39;;;;;;;;;;;1.40;99.90;;;;;;5072641;28;19912;-81
2020/12/09 12:15:08;;;;;;;;;;;1.40;99.90;;;;;;5072609;28;19912;-82
2020/12/09 12:17:33;;;;;;;;;;;1.40;99.90;;;;;;5072878;28;19920;-81
2020/12/09 12:19:59;;;;;;;;;;;1.50;99.90;;;;;;5093923;28;19921;-81
2020/12/09 12:22:25;;;;;;;;;;;1.50;99.90;;;;;;5076803;28;19909;-82
2020/12/09 12:24:51;;;;;;;;;;;1.50;99.90;;;;;;5086941;28;19912;-82
2020/12/09 12:27:17;;;;;;;;;;;1.50;99.90;;;;;;5100147;28;19914;-82
2020/12/09 12:29:42;;;;;;;;;;;1.70;99.90;;;;;;5076315;28;20015;-81
2020/12/09 12:32:08;;;;;;;;;;;1.80;99.90;;;;;;5080290;28;19916;-82
2020/12/09 12:34:36;;;;;;;;;;;1.90;99.90;;;;;;5098166;28;20257;-82
2020/12/09 12:37:03;;;;;;;;;;;1.80;99.90;;;;;;5079534;28;20053;-82
2020/12/09 12:39:28;;;;;;;;;;;1.80;99.90;;;;;;5018604;28;19913;-82
2020/12/09 12:41:54;;;;;;;;;;;1.70;99.90;;;;;;5018347;28;19913;-83
2020/12/09 12:44:19;;;;;;;;;;;1.80;99.90;;;;;;5018159;28;19913;-81
2020/12/09 12:46:47;;;;;;;;;;;1.80;99.90;;;;;;5018319;28;20014;-82
2020/12/09 12:49:13;;;;;;;;;;;1.90;99.90;;;;;;5034786;28;19909;-82
2020/12/09 12:51:41;;;;;;;;;;;1.90;99.90;;;;;;5018685;28;19943;-82
2020/12/09 12:54:07;;;;;;;;;;;1.90;99.90;;;;;;5034784;28;19917;-81
2020/12/09 12:56:34;;;;;;;;;;;1.90;99.90;;;;;;5034851;28;19913;-82
2020/12/09 12:59:04;;;;;;;;;;;1.90;99.90;;;;;;5018037;28;19910;-82
2020/12/09 13:01:34;;;;;;;;;;;1.90;99.90;;;;;;5034939;28;19909;-82
2020/12/09 13:04:00;;;;;;;;;;;2.00;99.90;;;;;;5015516;28;19923;-82
2020/12/09 13:06:28;;;;;;;;;;;2.00;99.90;;;;;;5034338;28;19909;-81
2020/12/09 13:08:55;;;;;;;;;;;1.90;99.90;;;;;;5034783;28;19940;-81
2020/12/09 13:11:23;;;;;;;;;;;1.90;99.90;;;;;;5015617;28;19947;-82
2020/12/09 13:13:49;;;;;;;;;;;1.90;99.90;;;;;;5015283;28;19924;-82
2020/12/09 13:16:15;;;;;;;;;;;1.90;99.90;;;;;;5017670;28;20321;-82
2020/12/09 13:18:40;;;;;;;;;;;1.90;99.90;;;;;;5014770;28;19918;-82
2020/12/09 13:21:06;;;;;;;;;;;1.90;99.90;;;;;;5031658;28;20468;-81
2020/12/09 13:23:32;;;;;;;;;;;1.90;99.90;;;;;;5059177;28;19961;-81
2020/12/09 13:26:01;;;;;;;;;;;2.00;99.90;;;;;;5076657;28;19913;-81
2020/12/09 13:28:28;;;;;;;;;;;2.10;99.90;;;;;;5075088;28;19993;-82
2020/12/09 13:30:54;;;;;;;;;;;2.10;99.90;;;;;;5076501;28;19917;-82
2020/12/09 13:33:22;;;;;;;;;;;2.00;99.90;;;;;;5074302;28;19916;-81
2020/12/09 13:35:47;;;;;;;;;;;2.00;99.90;;;;;;5051450;28;19908;-82
2020/12/09 13:38:13;;;;;;;;;;;1.90;99.90;;;;;;5053902;28;19909;-80
2020/12/09 13:40:42;;;;;;;;;;;1.90;99.90;;;;;;5050922;28;19917;-82
2020/12/09 13:43:08;;;;;;;;;;;1.90;99.90;;;;;;5054110;28;19909;-82
2020/12/09 13:45:34;;;;;;;;;;;1.80;99.90;;;;;;5050844;28;19923;-82
2020/12/09 13:48:00;;;;;;;;;;;1.80;99.90;;;;;;5054110;28;19913;-82
2020/12/09 13:50:27;;;;;;;;;;;1.80;99.90;;;;;;5053526;28;20358;-82
2020/12/09 13:52:55;;;;;;;;;;;1.80;99.90;;;;;;5051181;28;19920;-81
2020/12/09 13:55:25;;;;;;;;;;;1.80;99.90;;;;;;5053275;28;19935;-82
2020/12/09 13:57:54;;;;;;;;;;;1.80;99.90;;;;;;5053934;28;20262;-81
2020/12/09 14:00:20;;;;;;;;;;;1.80;99.90;;;;;;5051234;28;19999;-81
2020/12/09 14:02:56;;;;;;;;;;;1.70;99.90;;;;;;5075762;28;20334;-81
2020/12/09 14:05:22;;;;;;;;;;;1.70;99.90;;;;;;5075374;28;19992;-82
2020/12/09 14:07:47;;;;;;;;;;;1.80;99.90;;;;;;5069426;28;19999;-82
2020/12/09 14:10:13;;;;;;;;;;;1.80;99.90;;;;;;5074173;28;20432;-82
2020/12/09 14:12:47;;;;;;;;;;;1.80;99.90;;;;;;5074245;28;20400;-82
2020/12/09 14:15:20;;;;;;;;;;;1.80;99.90;;;;;;5074937;28;19912;-81
2020/12/09 14:17:51;;;;;;;;;;;1.80;99.90;;;;;;5074289;28;19908;-81
2020/12/09 14:20:16;;;;;;;;;;;1.80;99.90;;;;;;5032839;28;19983;-82
2020/12/09 14:22:42;;;;;;;;;;;1.80;99.90;;;;;;5016212;28;19917;-82
2020/12/09 14:25:08;;;;;;;;;;;1.80;99.90;;;;;;5030575;28;19914;-82
2020/12/09 14:27:38;;;;;;;;;;;1.80;99.90;;;;;;5033664;28;20385;-83
2020/12/09 14:30:07;;;;;;;;;;;1.80;99.90;;;;;;5032873;28;19935;-81
2020/12/09 14:32:37;;;;;;;;;;;1.80;99.90;;;;;;5032679;28;20366;-81
2020/12/09 14:35:08;;;;;;;;;;;1.80;99.90;;;;;;5016159;28;20406;-81
2020/12/09 14:37:36;;;;;;;;;;;1.90;99.90;;;;;;5030487;28;19913;-82
2020/12/09 14:40:04;;;;;;;;;;;1.90;99.90;;;;;;5029886;28;19917;-82